createdAt,value
2023-04-04T00:01:17.182Z,1.38
2023-04-04T00:06:19.695Z,1.10
2023-04-04T00:11:22.053Z,1.80
2023-04-04T00:16:23.405Z,1.60
2023-04-04T00:21:27.339Z,2.05
2023-04-04T00:26:28.774Z,1.20
2023-04-04T00:31:30.227Z,1.98
2023-04-04T00:36:31.669Z,1.13
2023-04-04T00:41:33.149Z,1.42
2023-04-04T00:46:34.563Z,1.60
2023-04-04T00:51:36.369Z,1.60
2023-04-04T00:56:39.649Z,1.90
2023-04-04T01:01:41.580Z,1.70
2023-04-04T01:06:43.912Z,1.50
2023-04-04T01:11:45.581Z,1.83
2023-04-04T01:16:49.555Z,1.70
2023-04-04T01:21:53.607Z,1.70
2023-04-04T01:26:55.031Z,1.92
2023-04-04T01:32:12.784Z,1.65
2023-04-04T01:37:35.064Z,1.70
2023-04-04T01:42:37.948Z,2.00
2023-04-04T01:47:41.085Z,2.03
2023-04-04T01:52:43.098Z,1.90
2023-04-04T01:57:44.576Z,1.67
2023-04-04T02:02:45.971Z,2.22
2023-04-04T02:07:49.627Z,2.40
2023-04-04T02:12:53.243Z,1.90
2023-04-04T02:17:54.661Z,2.00
2023-04-04T02:22:57.249Z,2.50
2023-04-04T02:27:58.663Z,2.17
2023-04-04T02:33:00.250Z,2.05
2023-04-04T02:38:01.948Z,1.90
2023-04-04T02:43:04.027Z,1.85
2023-04-04T02:48:07.485Z,1.98
2023-04-04T02:53:08.916Z,2.25
2023-04-04T02:58:10.319Z,2.25
2023-04-04T03:03:11.751Z,2.00
2023-04-04T03:08:13.205Z,2.42
2023-04-04T03:13:14.640Z,2.17
2023-04-04T03:18:16.469Z,2.30
2023-04-04T03:23:17.812Z,2.40
2023-04-04T03:28:19.129Z,2.35
2023-04-04T03:33:21.709Z,2.63
2023-04-04T03:38:23.308Z,2.30
2023-04-04T03:43:24.591Z,2.22
2023-04-04T03:48:25.937Z,2.30
2023-04-04T03:53:28.713Z,2.47
2023-04-04T03:58:30.838Z,2.03
2023-04-04T04:03:32.344Z,2.42
2023-04-04T04:08:33.776Z,2.83
2023-04-04T04:13:38.163Z,2.28
2023-04-04T04:18:40.144Z,2.37
2023-04-04T04:23:41.447Z,2.20
2023-04-04T04:28:42.857Z,2.38
2023-04-04T04:33:44.161Z,2.35
2023-04-04T04:38:45.514Z,2.60
2023-04-04T04:43:46.844Z,2.33
2023-04-04T04:48:48.500Z,2.70
2023-04-04T04:53:49.974Z,2.78
2023-04-04T04:58:51.355Z,2.35
2023-04-04T05:03:53.566Z,1.85
2023-04-04T05:08:55.616Z,2.20
2023-04-04T05:13:57.274Z,2.45
2023-04-04T05:18:58.645Z,2.67
2023-04-04T05:23:59.986Z,2.40
2023-04-04T05:29:01.428Z,2.88
2023-04-04T05:34:08.163Z,2.55
2023-04-04T05:39:09.585Z,2.92
2023-04-04T05:44:11.464Z,2.90
2023-04-04T05:49:12.849Z,2.88
2023-04-04T05:54:14.212Z,2.92
2023-04-04T05:59:16.515Z,3.22
2023-04-04T06:04:18.213Z,2.30
2023-04-04T06:09:19.566Z,3.00
2023-04-04T06:14:20.874Z,2.47
2023-04-04T06:19:22.296Z,2.20
2023-04-04T06:24:24.273Z,2.35
2023-04-04T06:29:26.218Z,2.88
2023-04-04T06:34:27.886Z,2.60
2023-04-04T06:39:31.418Z,2.92
2023-04-04T06:44:32.836Z,2.38
2023-04-04T06:49:34.266Z,2.20
2023-04-04T06:54:35.913Z,2.47
2023-04-04T06:59:37.291Z,2.03
2023-04-04T07:04:39.866Z,2.13
2023-04-04T07:09:41.385Z,1.90
2023-04-04T07:14:42.741Z,2.00
2023-04-04T07:19:44.043Z,1.92
2023-04-04T07:24:45.686Z,1.75
2023-04-04T07:29:47.417Z,1.65
2023-04-04T07:34:49.541Z,1.52
2023-04-04T07:39:51.108Z,1.27
2023-04-04T07:44:52.666Z,1.90
2023-04-04T07:49:53.994Z,1.90
2023-04-04T07:54:55.672Z,1.88
2023-04-04T07:59:57.020Z,1.77
2023-04-04T08:04:58.333Z,1.50
2023-04-04T08:09:59.780Z,1.55
2023-04-04T08:15:02.138Z,1.67
2023-04-04T08:20:04.538Z,1.45
2023-04-04T08:25:06.217Z,1.90
2023-04-04T08:30:09.273Z,1.20
2023-04-04T08:35:11.723Z,1.42
2023-04-04T08:40:13.567Z,1.55
2023-04-04T08:45:17.837Z,1.40
2023-04-04T08:50:21.569Z,1.50
2023-04-04T08:55:23.205Z,1.30
2023-04-04T09:00:25.130Z,1.60
2023-04-04T09:05:27.291Z,1.52
2023-04-04T09:10:29.760Z,1.25
2023-04-04T09:15:32.739Z,1.20
2023-04-04T09:20:39.231Z,1.20
2023-04-04T09:26:02.593Z,1.58
2023-04-04T09:31:09.929Z,1.50
2023-04-04T09:36:12.902Z,1.80
2023-04-04T09:41:16.510Z,1.33
2023-04-04T09:46:21.479Z,1.45
2023-04-04T09:51:22.939Z,1.20
2023-04-04T09:56:24.260Z,1.30
2023-04-04T10:01:25.942Z,1.40
2023-04-04T10:06:27.800Z,1.45
2023-04-04T10:11:35.038Z,1.30
2023-04-04T10:16:38.356Z,1.15
2023-04-04T10:21:40.724Z,1.07
2023-04-04T10:26:42.160Z,1.10
2023-04-04T10:31:47.614Z,1.33
2023-04-04T10:36:58.378Z,0.90
2023-04-04T10:42:02.102Z,0.80
2023-04-04T10:52:18.668Z,0.85
2023-04-04T10:57:20.232Z,1.25
2023-04-04T11:02:45.022Z,1.27
2023-04-04T11:07:57.199Z,1.00
2023-04-04T11:13:13.704Z,1.03
2023-04-04T11:18:31.602Z,0.68
2023-04-04T11:23:49.783Z,1.08
2023-04-04T11:28:51.288Z,0.80
2023-04-04T11:39:30.188Z,0.77
2023-04-04T11:44:33.480Z,1.33
2023-04-04T11:49:37.596Z,1.13
2023-04-04T11:54:40.857Z,0.98
2023-04-04T11:59:45.357Z,1.20
2023-04-04T12:04:47.579Z,0.90
2023-04-04T12:09:49.030Z,1.00
2023-04-04T12:14:50.393Z,1.20
2023-04-04T12:19:52.518Z,1.02
2023-04-04T12:24:53.952Z,1.10
2023-04-04T12:29:56.481Z,1.13
2023-04-04T12:35:02.333Z,1.50
2023-04-04T12:40:04.925Z,1.08
2023-04-04T12:45:07.167Z,1.08
2023-04-04T12:50:09.070Z,1.30
2023-04-04T12:55:10.848Z,1.05
2023-04-04T13:00:13.892Z,1.00
2023-04-04T13:05:16.586Z,1.00
2023-04-04T13:10:20.347Z,0.70
2023-04-04T13:15:21.891Z,1.40
2023-04-04T13:20:25.681Z,0.95
2023-04-04T13:25:27.157Z,1.20
2023-04-04T13:30:29.051Z,1.67
2023-04-04T13:35:31.634Z,1.92
2023-04-04T13:45:36.261Z,1.63
2023-04-04T13:50:40.373Z,1.88
2023-04-04T13:55:52.064Z,2.08
2023-04-04T14:01:06.861Z,1.85
2023-04-04T14:06:10.728Z,1.65
2023-04-04T14:11:13.236Z,1.80
2023-04-04T14:16:14.769Z,1.80
2023-04-04T14:21:16.241Z,1.77
2023-04-04T14:26:17.609Z,1.80
2023-04-04T14:31:20.084Z,2.10
2023-04-04T14:36:21.674Z,2.50
2023-04-04T14:41:23.040Z,1.83
2023-04-04T14:46:25.870Z,1.80
2023-04-04T14:51:27.638Z,2.00
2023-04-04T14:56:29.052Z,1.80
2023-04-04T15:01:30.542Z,1.85
2023-04-04T15:06:37.916Z,2.20
2023-04-04T15:11:40.323Z,2.13
2023-04-04T15:16:41.689Z,1.80
2023-04-04T15:21:43.110Z,2.00
2023-04-04T15:26:44.474Z,1.83
2023-04-04T15:31:46.809Z,1.80
2023-04-04T15:36:49.941Z,1.88
2023-04-04T15:41:51.583Z,2.00
2023-04-04T15:46:53.022Z,1.70
2023-04-04T15:51:54.487Z,1.80
2023-04-04T15:56:56.639Z,2.00
2023-04-04T16:01:57.963Z,1.70
2023-04-04T16:06:59.364Z,1.85
2023-04-04T16:12:02.207Z,1.95
2023-04-04T16:17:03.767Z,1.88
2023-04-04T16:22:06.234Z,2.35
2023-04-04T16:27:07.695Z,2.15
2023-04-04T16:32:08.989Z,1.98
2023-04-04T16:37:11.973Z,2.88
2023-04-04T16:42:13.616Z,2.10
2023-04-04T16:47:14.954Z,2.08
2023-04-04T16:52:16.278Z,2.20
2023-04-04T16:57:17.683Z,1.73
2023-04-04T17:02:19.063Z,1.77
2023-04-04T17:07:21.045Z,1.70
2023-04-04T17:12:22.342Z,2.35
2023-04-04T17:17:23.766Z,2.80
2023-04-04T17:22:25.495Z,2.40
2023-04-04T17:27:26.885Z,2.40
2023-04-04T17:32:28.387Z,2.90
2023-04-04T17:37:30.873Z,2.90
2023-04-04T17:42:32.457Z,2.83
2023-04-04T17:47:33.863Z,2.63
2023-04-04T17:52:35.178Z,2.53
2023-04-04T17:57:37.323Z,6.93
2023-04-04T18:02:38.735Z,2.78
2023-04-04T18:07:40.415Z,2.58
2023-04-04T18:12:42.506Z,2.88
2023-04-04T18:17:44.410Z,3.55
2023-04-04T18:22:46.347Z,5.75
2023-04-04T18:27:47.698Z,6.75
2023-04-04T18:32:50.560Z,7.53
2023-04-04T18:37:52.355Z,9.25
2023-04-04T18:42:53.777Z,4.88
2023-04-04T18:47:55.198Z,4.13
2023-04-04T18:52:56.750Z,5.47
2023-04-04T18:57:58.128Z,4.45
2023-04-04T19:02:59.605Z,4.28
2023-04-04T19:08:01.400Z,4.32
2023-04-04T19:13:02.876Z,5.20
2023-04-04T19:18:05.225Z,3.80
2023-04-04T19:23:06.760Z,3.90
2023-04-04T19:28:09.745Z,3.88
2023-04-04T19:33:12.978Z,3.58
2023-04-04T19:38:20.754Z,3.92
2023-04-04T19:43:22.798Z,3.90
2023-04-04T19:48:50.561Z,3.85
2023-04-04T19:53:54.299Z,3.75
2023-04-04T19:59:02.038Z,4.10
2023-04-04T20:04:05.978Z,3.58
2023-04-04T20:09:34.941Z,4.30
2023-04-04T20:14:36.474Z,3.28
2023-04-04T20:19:38.074Z,3.40
2023-04-04T20:24:41.508Z,3.30
2023-04-04T20:29:43.692Z,3.50
2023-04-04T20:34:45.937Z,3.63
2023-04-04T20:40:20.549Z,4.47
2023-04-04T20:45:41.141Z,3.40
2023-04-04T20:50:44.839Z,3.85
2023-04-04T20:55:46.446Z,4.38
2023-04-04T21:00:48.382Z,3.60
2023-04-04T21:05:49.872Z,3.55
2023-04-04T21:10:53.820Z,3.67
2023-04-04T21:15:59.909Z,4.07
2023-04-04T21:21:13.180Z,4.35
2023-04-04T21:26:32.710Z,4.18
2023-04-04T21:31:37.132Z,4.88
2023-04-04T21:36:38.915Z,4.18
2023-04-04T21:41:41.256Z,5.35
2023-04-04T21:46:42.905Z,5.70
2023-04-04T21:51:44.379Z,4.90
2023-04-04T21:56:46.713Z,4.28
2023-04-04T22:01:49.980Z,5.00
2023-04-04T22:06:51.364Z,4.40
2023-04-04T22:11:53.839Z,4.70
2023-04-04T22:16:58.624Z,5.68
2023-04-04T22:22:00.441Z,5.18
2023-04-04T22:27:03.834Z,4.78
2023-04-04T22:32:05.398Z,4.45
2023-04-04T22:37:06.795Z,4.30
2023-04-04T22:42:08.148Z,3.55
2023-04-04T22:47:09.565Z,3.67
2023-04-04T22:52:13.079Z,3.70
2023-04-04T22:57:14.434Z,4.03
2023-04-04T23:02:15.936Z,4.00
2023-04-04T23:07:17.279Z,4.20
2023-04-04T23:12:18.604Z,4.70
2023-04-04T23:17:19.984Z,4.20
2023-04-04T23:22:21.446Z,4.22
2023-04-04T23:27:22.927Z,4.00
2023-04-04T23:32:24.418Z,3.40
2023-04-04T23:37:26.072Z,3.75
2023-04-04T23:42:27.448Z,3.90
2023-04-04T23:47:28.834Z,3.95
2023-04-04T23:52:30.323Z,3.60
2023-04-04T23:57:31.706Z,4.00
